Diorama, Brazil
Current Conditions -  °F | °C
As of 8:00 PM on Friday 19 Dec 2014 (Local Time) from SBBW Reporting Station
Broken Clouds Broken Clouds  
Wind Chill: 77°   Ceiling: 8000
Heat Index: 78°   Visibility: 6mi
Dew Point: 73°   Wind: 2mph
Humidity: 89%   Direction: 50°NE
Pressure: 29.8"   Gusts: NA
Location:  16.35°S, 51.23°W
Report Text: SBBW 192200Z 05002KT 9999 FEW020 BKN080 25/23 Q1009
Loading
Personal Weather Stations






























Interactive Weather Map New forecast layout! Learn more

10-Day Weather Forecast

Advertisements
Track Severe Weather on mobile